Time;durP1;ratioP1;P1;durP2;ratioP2;P2;SDS_P1;SDS_P2;PMS_P1;PMS_P2;Temp;Humidity;BMP_temperature;BMP_pressure;BME280_temperature;BME280_humidity;BME280_pressure;Samples;Min_cycle;Max_cycle;Signal;HPM_P1;HPM_P2
2022/03/02 00:00:17;;;;;;;11.60;5.82;;;4.50;99.90;;;;;;7359026;32;20240;-59
2022/03/02 00:04:20;;;;;;;13.80;6.85;;;4.70;99.90;;;;;;7363197;32;20270;-60
2022/03/02 00:08:22;;;;;;;20.48;11.63;;;4.60;99.90;;;;;;7361467;32;20270;-60
2022/03/02 00:12:24;;;;;;;16.98;10.20;;;4.50;99.90;;;;;;7363017;32;20213;-60
2022/03/02 00:16:28;;;;;;;18.73;9.95;;;4.30;99.90;;;;;;7354159;32;20130;-60
2022/03/02 00:20:30;;;;;;;16.62;9.05;;;4.10;99.90;;;;;;7358881;32;20231;-61
2022/03/02 00:24:32;;;;;;;17.25;9.90;;;3.90;99.90;;;;;;7360564;32;20107;-60
2022/03/02 00:28:34;;;;;;;15.88;9.65;;;3.70;99.90;;;;;;7364831;32;20206;-60
2022/03/02 00:32:35;;;;;;;19.45;10.38;;;3.50;99.90;;;;;;7354690;32;20489;-60
2022/03/02 00:36:37;;;;;;;16.52;9.35;;;3.40;99.90;;;;;;7360504;32;20640;-60
2022/03/02 00:40:40;;;;;;;14.52;8.55;;;3.40;99.90;;;;;;7363625;32;20119;-58
2022/03/02 00:44:42;;;;;;;14.20;8.07;;;3.30;99.90;;;;;;7356693;32;20122;-60
2022/03/02 00:48:44;;;;;;;13.90;7.03;;;3.30;99.90;;;;;;7363912;32;20134;-62
2022/03/02 00:52:46;;;;;;;17.45;8.07;;;3.20;99.90;;;;;;7352588;32;20111;-60
2022/03/02 00:56:48;;;;;;;47.95;24.90;;;3.10;99.90;;;;;;7361219;32;20147;-60
2022/03/02 01:00:50;;;;;;;83.22;42.30;;;3.00;99.90;;;;;;7356372;32;20126;-59
2022/03/02 01:04:52;;;;;;;60.97;31.33;;;2.80;99.90;;;;;;7364862;32;20171;-60
2022/03/02 01:08:54;;;;;;;48.38;23.05;;;2.70;99.90;;;;;;7361509;32;20194;-60
2022/03/02 01:12:55;;;;;;;31.98;15.93;;;2.60;99.90;;;;;;7361427;32;20111;-59
2022/03/02 01:16:57;;;;;;;22.37;12.37;;;2.40;99.90;;;;;;7354589;32;20095;-59
2022/03/02 01:20:59;;;;;;;21.42;11.70;;;2.20;99.90;;;;;;7362930;32;20132;-59
2022/03/02 01:25:03;;;;;;;18.58;10.88;;;2.10;99.90;;;;;;7361617;32;20232;-59
2022/03/02 01:29:06;;;;;;;21.42;11.20;;;2.10;99.90;;;;;;7358082;32;20104;-60
2022/03/02 01:33:07;;;;;;;22.25;12.98;;;1.90;99.90;;;;;;7370701;32;20136;-59
2022/03/02 01:37:09;;;;;;;21.05;12.40;;;1.80;99.90;;;;;;7367038;32;20130;-60
2022/03/02 01:41:17;;;;;;;19.62;10.18;;;1.70;99.90;;;;;;7359805;32;20319;-59
2022/03/02 01:45:21;;;;;;;16.98;9.55;;;1.70;99.90;;;;;;7363398;32;20669;-59
2022/03/02 01:49:22;;;;;;;16.90;9.55;;;1.70;99.90;;;;;;7356647;32;20103;-60
2022/03/02 01:53:24;;;;;;;14.20;7.95;;;1.70;99.90;;;;;;7364807;32;20136;-60
2022/03/02 01:57:27;;;;;;;13.10;7.60;;;1.70;99.90;;;;;;7363979;32;20107;-60
2022/03/02 02:01:30;;;;;;;10.55;6.37;;;1.70;99.90;;;;;;7363825;32;20096;-60
2022/03/02 02:05:33;;;;;;;15.75;6.22;;;1.80;99.90;;;;;;7371186;32;20531;-61
2022/03/02 02:09:34;;;;;;;30.05;13.93;;;1.70;99.90;;;;;;7358353;32;20107;-59
2022/03/02 02:13:36;;;;;;;44.47;21.17;;;1.70;99.90;;;;;;7362243;32;20185;-60
2022/03/02 02:17:38;;;;;;;35.63;17.85;;;1.60;99.90;;;;;;7361438;32;20102;-60
2022/03/02 02:21:40;;;;;;;31.52;15.50;;;1.70;99.90;;;;;;7358834;32;20130;-59
2022/03/02 02:25:42;;;;;;;30.58;13.75;;;1.70;99.90;;;;;;7361020;32;20221;-60
2022/03/02 02:29:47;;;;;;;21.55;10.65;;;1.70;99.90;;;;;;7362752;32;20240;-60
2022/03/02 02:33:49;;;;;;;18.95;10.00;;;1.70;99.90;;;;;;7359430;32;20698;-60
2022/03/02 02:37:52;;;;;;;17.23;8.82;;;1.70;99.90;;;;;;7357146;32;20210;-61
2022/03/02 02:42:02;;;;;;;14.70;8.38;;;1.60;99.90;;;;;;7358212;32;21063;-60
2022/03/02 02:46:04;;;;;;;11.75;6.53;;;1.60;99.90;;;;;;7361052;32;20373;-60
2022/03/02 02:50:21;;;;;;;17.70;7.10;;;1.50;99.90;;;;;;7357569;32;20550;-61
2022/03/02 02:54:23;;;;;;;13.73;6.80;;;1.50;99.90;;;;;;7353703;32;20301;-59
2022/03/02 02:58:25;;;;;;;11.57;6.43;;;1.50;99.90;;;;;;7353339;32;20217;-60
2022/03/02 03:02:26;;;;;;;15.10;6.60;;;1.50;99.90;;;;;;7357576;32;20514;-60
2022/03/02 03:06:28;;;;;;;12.95;7.05;;;1.50;99.90;;;;;;7353169;32;20933;-58
2022/03/02 03:10:31;;;;;;;11.80;7.20;;;1.50;99.90;;;;;;7360256;32;20449;-60
2022/03/02 03:14:32;;;;;;;15.27;8.57;;;1.40;99.90;;;;;;7357576;32;20183;-59
2022/03/02 03:18:34;;;;;;;16.55;8.40;;;1.40;99.90;;;;;;7366540;32;20705;-59
2022/03/02 03:22:37;;;;;;;9.45;6.05;;;1.30;99.90;;;;;;7352353;32;20262;-59
2022/03/02 03:26:38;;;;;;;13.70;7.37;;;1.40;99.90;;;;;;7357107;32;20221;-60
2022/03/02 03:30:40;;;;;;;14.20;6.82;;;1.40;99.90;;;;;;7357727;32;20165;-59
2022/03/02 03:34:42;;;;;;;9.93;6.12;;;1.40;99.90;;;;;;7356347;32;20202;-59
2022/03/02 03:38:45;;;;;;;9.65;5.62;;;1.30;99.90;;;;;;7361251;32;20322;-58
2022/03/02 03:42:49;;;;;;;10.15;6.20;;;1.20;99.90;;;;;;7355191;32;20259;-58
2022/03/02 03:46:51;;;;;;;13.27;6.45;;;1.30;99.90;;;;;;7353217;32;20127;-60
2022/03/02 03:50:53;;;;;;;14.38;6.85;;;1.30;99.90;;;;;;7352507;32;20232;-60
2022/03/02 03:54:55;;;;;;;11.38;6.60;;;1.20;99.90;;;;;;7362122;32;20233;-59
2022/03/02 03:58:58;;;;;;;12.85;7.30;;;1.20;99.90;;;;;;7354985;32;20521;-59
2022/03/02 04:03:00;;;;;;;12.52;6.32;;;1.20;99.90;;;;;;7360036;32;20126;-58
2022/03/02 04:07:02;;;;;;;12.80;6.12;;;1.20;99.90;;;;;;7362907;32;20285;-59
2022/03/02 04:11:04;;;;;;;11.60;6.00;;;1.20;99.90;;;;;;7353990;32;20205;-58
2022/03/02 04:15:07;;;;;;;13.93;5.95;;;1.20;99.90;;;;;;7355784;32;20107;-59
2022/03/02 04:19:09;;;;;;;11.10;6.10;;;1.30;99.90;;;;;;7366290;32;20122;-58
2022/03/02 04:23:11;;;;;;;11.75;5.57;;;1.30;99.90;;;;;;7364687;32;20215;-58
2022/03/02 04:27:13;;;;;;;9.70;6.05;;;1.30;99.90;;;;;;7362253;32;20134;-59
2022/03/02 04:31:15;;;;;;;12.13;6.47;;;1.30;99.90;;;;;;7348823;32;20138;-59
2022/03/02 04:35:17;;;;;;;12.93;6.82;;;1.30;99.90;;;;;;7354751;32;20130;-59
2022/03/02 04:39:19;;;;;;;14.02;6.05;;;1.30;99.90;;;;;;7354609;32;20558;-59
2022/03/02 04:43:21;;;;;;;14.87;6.62;;;1.30;99.90;;;;;;7360685;32;21375;-59
2022/03/02 04:47:22;;;;;;;9.68;5.78;;;1.30;99.90;;;;;;7354875;32;20245;-59
2022/03/02 04:51:24;;;;;;;11.02;5.87;;;1.30;99.90;;;;;;7361223;32;20157;-58
2022/03/02 04:55:26;;;;;;;10.77;5.45;;;1.10;99.90;;;;;;7348301;32;20129;-59
2022/03/02 04:59:27;;;;;;;10.75;6.18;;;1.10;99.90;;;;;;7350240;32;20103;-59
2022/03/02 05:03:29;;;;;;;11.23;6.32;;;1.10;99.90;;;;;;7352855;32;20111;-59
2022/03/02 05:07:31;;;;;;;18.08;6.55;;;1.00;99.90;;;;;;7364245;32;20743;-59
2022/03/02 05:11:33;;;;;;;10.40;6.75;;;1.00;99.90;;;;;;7357577;32;20506;-59
2022/03/02 05:15:35;;;;;;;11.12;6.00;;;1.00;99.90;;;;;;7356721;32;20361;-58
2022/03/02 05:19:37;;;;;;;12.35;6.15;;;0.90;99.90;;;;;;7352372;32;20122;-58
2022/03/02 05:23:38;;;;;;;13.95;6.50;;;0.90;99.90;;;;;;7357725;32;20121;-58
2022/03/02 05:27:40;;;;;;;12.98;6.15;;;0.90;99.90;;;;;;7356926;32;20095;-60
2022/03/02 05:31:42;;;;;;;15.10;6.90;;;0.80;99.90;;;;;;7355089;32;20269;-59
2022/03/02 05:35:44;;;;;;;12.60;6.37;;;0.70;99.90;;;;;;7361091;32;20326;-58
2022/03/02 05:39:46;;;;;;;12.65;6.90;;;0.70;99.90;;;;;;7353259;32;20115;-60
2022/03/02 05:43:49;;;;;;;11.00;6.37;;;0.70;99.90;;;;;;7365680;32;20471;-58
2022/03/02 05:47:51;;;;;;;12.80;6.93;;;0.60;99.90;;;;;;7359674;32;20160;-59
2022/03/02 05:51:52;;;;;;;11.73;6.03;;;0.60;99.90;;;;;;7347234;32;20122;-59
2022/03/02 05:55:54;;;;;;;12.98;6.60;;;0.50;99.90;;;;;;7350712;32;20249;-58
2022/03/02 05:59:56;;;;;;;12.90;6.72;;;0.50;99.90;;;;;;7363885;32;20111;-59
2022/03/02 06:03:58;;;;;;;13.48;6.40;;;0.40;99.90;;;;;;7355901;32;20466;-58
2022/03/02 06:08:13;;;;;;;13.15;6.87;;;0.30;99.90;;;;;;7364267;32;20474;-59
2022/03/02 06:12:15;;;;;;;12.18;6.87;;;0.30;99.90;;;;;;7359281;32;20674;-58
2022/03/02 06:16:20;;;;;;;18.62;8.57;;;0.20;99.90;;;;;;7366404;32;20125;-60
2022/03/02 06:20:22;;;;;;;11.73;7.50;;;0.20;99.90;;;;;;7354925;32;20107;-59
2022/03/02 06:24:24;;;;;;;13.27;7.37;;;0.30;99.90;;;;;;7367831;32;20301;-59
2022/03/02 06:28:26;;;;;;;12.70;7.05;;;0.20;99.90;;;;;;7362481;32;20815;-58
2022/03/02 06:32:29;;;;;;;16.25;7.37;;;0.20;99.90;;;;;;7366693;32;20103;-59
2022/03/02 06:36:31;;;;;;;15.40;6.95;;;0.10;99.90;;;;;;7357013;32;20211;-58
2022/03/02 06:40:33;;;;;;;19.27;9.85;;;0.10;99.90;;;;;;7361707;32;20194;-58
2022/03/02 06:44:56;;;;;;;17.15;9.20;;;0.10;99.90;;;;;;7355145;32;20762;-60
2022/03/02 06:49:30;;;;;;;16.27;8.48;;;0.10;99.90;;;;;;7354675;32;20390;-59
2022/03/02 06:53:38;;;;;;;12.95;6.70;;;0.20;99.90;;;;;;7360852;32;20822;-60
2022/03/02 06:57:41;;;;;;;11.18;7.18;;;0.20;99.90;;;;;;7362419;32;20111;-58
2022/03/02 07:01:50;;;;;;;13.70;6.85;;;0.30;99.90;;;;;;7363662;32;20103;-61
2022/03/02 07:05:54;;;;;;;12.80;6.45;;;0.30;99.90;;;;;;7359891;32;20257;-61
2022/03/02 07:09:57;;;;;;;15.43;8.50;;;0.40;99.90;;;;;;7358669;32;20559;-58
2022/03/02 07:13:59;;;;;;;13.88;7.35;;;0.50;99.90;;;;;;7350958;32;20103;-59
2022/03/02 07:18:02;;;;;;;13.73;7.20;;;0.50;99.90;;;;;;7357048;32;20107;-59
2022/03/02 07:22:05;;;;;;;15.63;7.32;;;0.60;99.90;;;;;;7355245;32;20123;-58
2022/03/02 07:26:09;;;;;;;15.38;7.55;;;0.60;99.90;;;;;;7360252;32;20100;-59
2022/03/02 07:30:12;;;;;;;17.25;9.80;;;0.70;99.90;;;;;;7357965;32;20140;-59
2022/03/02 07:34:15;;;;;;;16.25;7.28;;;0.70;99.90;;;;;;7367566;32;20115;-59
2022/03/02 07:38:17;;;;;;;13.68;7.30;;;0.80;99.90;;;;;;7367605;32;20133;-59
2022/03/02 07:42:19;;;;;;;16.77;7.60;;;0.90;99.90;;;;;;7360658;32;20226;-58
2022/03/02 07:46:21;;;;;;;12.48;7.65;;;1.00;99.90;;;;;;7356374;32;20134;-58
2022/03/02 07:50:23;;;;;;;13.20;7.18;;;1.10;99.90;;;;;;7354064;32;20202;-59
2022/03/02 07:54:29;;;;;;;12.13;7.35;;;1.20;99.90;;;;;;7352438;32;20467;-59
2022/03/02 07:58:31;;;;;;;16.92;6.87;;;1.20;99.90;;;;;;7354104;32;20538;-60
2022/03/02 08:02:33;;;;;;;17.17;8.13;;;1.20;99.90;;;;;;7360401;32;20324;-60
2022/03/02 08:06:39;;;;;;;13.82;8.07;;;1.30;99.90;;;;;;7359754;32;20209;-58
2022/03/02 08:10:42;;;;;;;11.00;7.53;;;1.40;99.90;;;;;;7356405;32;22011;-59
2022/03/02 08:14:44;;;;;;;15.27;8.32;;;1.60;99.90;;;;;;7360626;32;20607;-60
2022/03/02 08:18:46;;;;;;;13.43;8.45;;;1.70;99.90;;;;;;7357178;32;20145;-58
2022/03/02 08:22:51;;;;;;;11.98;6.75;;;2.00;99.90;;;;;;7364704;32;20617;-59
2022/03/02 08:26:57;;;;;;;13.15;6.35;;;2.40;99.90;;;;;;7360356;32;20345;-59
2022/03/02 08:30:59;;;;;;;10.77;6.23;;;2.60;99.90;;;;;;7360981;32;20147;-59
2022/03/02 08:35:01;;;;;;;10.57;5.87;;;3.10;99.90;;;;;;7359029;32;20099;-60
2022/03/02 08:39:06;;;;;;;8.50;5.68;;;3.50;99.90;;;;;;7359795;32;20210;-58
2022/03/02 08:43:07;;;;;;;13.30;6.50;;;4.10;99.90;;;;;;7363160;32;20127;-59
2022/03/02 08:47:09;;;;;;;11.00;6.30;;;4.50;99.90;;;;;;7360858;32;20099;-59
2022/03/02 08:51:12;;;;;;;10.85;6.10;;;4.70;99.90;;;;;;7357217;32;20237;-60
2022/03/02 08:55:13;;;;;;;12.55;6.80;;;4.80;99.90;;;;;;7359341;32;20692;-59
2022/03/02 08:59:18;;;;;;;11.23;5.85;;;5.10;99.90;;;;;;7357733;32;20720;-60
2022/03/02 09:03:22;;;;;;;10.23;6.62;;;5.40;99.90;;;;;;7354417;32;20107;-59
2022/03/02 09:07:24;;;;;;;9.15;5.75;;;5.70;99.90;;;;;;7357561;32;20202;-60
2022/03/02 09:11:25;;;;;;;10.32;6.03;;;5.90;99.40;;;;;;7360492;32;20568;-58
2022/03/02 09:15:28;;;;;;;8.90;6.10;;;6.30;97.90;;;;;;7358403;32;20186;-59
2022/03/02 09:19:30;;;;;;;7.87;4.87;;;7.10;97.10;;;;;;7366275;32;20689;-59
2022/03/02 09:23:34;;;;;;;8.90;6.15;;;8.20;93.80;;;;;;7353448;32;20263;-58
2022/03/02 09:27:36;;;;;;;11.70;6.05;;;9.50;95.50;;;;;;7358101;32;20284;-58
2022/03/02 09:31:38;;;;;;;10.90;6.18;;;10.90;82.50;;;;;;7356314;32;20476;-61
2022/03/02 09:35:45;;;;;;;10.60;6.95;;;11.70;76.10;;;;;;7368216;32;20103;-58
2022/03/02 09:39:55;;;;;;;11.07;6.43;;;12.30;63.00;;;;;;7362916;32;20436;-60
2022/03/02 09:44:05;;;;;;;9.73;5.93;;;12.30;56.70;;;;;;7356561;32;20174;-59
2022/03/02 09:48:15;;;;;;;7.43;5.62;;;11.80;62.40;;;;;;7363895;32;20127;-59
2022/03/02 09:52:19;;;;;;;7.60;5.47;;;13.30;56.40;;;;;;7357624;32;20553;-59
2022/03/02 09:56:37;;;;;;;8.10;5.60;;;13.10;50.30;;;;;;7371368;32;20277;-59
2022/03/02 10:00:41;;;;;;;7.90;5.55;;;14.20;50.80;;;;;;7353875;32;20645;-60
2022/03/02 10:04:50;;;;;;;8.75;5.68;;;14.20;47.90;;;;;;7359339;32;20718;-59
2022/03/02 10:08:54;;;;;;;7.43;5.82;;;15.40;48.30;;;;;;7356906;32;21001;-59
2022/03/02 10:13:01;;;;;;;8.40;5.68;;;15.50;43.00;;;;;;7361605;32;21104;-59
2022/03/02 10:17:03;;;;;;;9.20;6.25;;;16.40;42.90;;;;;;7363611;32;20431;-61
2022/03/02 10:21:11;;;;;;;10.63;6.47;;;17.80;40.20;;;;;;7358721;32;20115;-60
2022/03/02 10:25:26;;;;;;;8.68;5.37;;;18.10;39.80;;;;;;7363206;32;20205;-59
2022/03/02 10:29:44;;;;;;;6.40;5.68;;;17.40;36.70;;;;;;7354220;32;20744;-59
2022/03/02 10:34:01;;;;;;;7.03;5.10;;;17.90;37.10;;;;;;7360476;32;20608;-61
2022/03/02 10:38:04;;;;;;;6.83;5.33;;;16.70;37.30;;;;;;7367753;32;20138;-60
2022/03/02 10:42:06;;;;;;;8.45;5.80;;;15.30;38.20;;;;;;7360976;32;20139;-60
2022/03/02 10:46:10;;;;;;;8.95;5.65;;;14.50;40.20;;;;;;7358609;32;20227;-59
2022/03/02 10:50:13;;;;;;;8.45;5.90;;;14.40;41.80;;;;;;7360051;32;20107;-59
2022/03/02 10:54:22;;;;;;;8.05;5.43;;;13.30;42.40;;;;;;7353024;32;20586;-59
2022/03/02 10:58:28;;;;;;;7.18;5.75;;;12.60;45.00;;;;;;7367775;32;20179;-60
2022/03/02 11:02:32;;;;;;;7.97;5.55;;;11.00;46.40;;;;;;7357447;32;20170;-59
2022/03/02 11:06:37;;;;;;;8.20;6.20;;;10.80;47.80;;;;;;7355349;32;20107;-56
2022/03/02 11:10:40;;;;;;;9.52;5.65;;;10.10;50.60;;;;;;7361929;32;20182;-60
2022/03/02 11:14:56;;;;;;;7.93;5.93;;;10.30;50.80;;;;;;7361032;32;20107;-59
2022/03/02 11:19:10;;;;;;;9.85;6.15;;;10.00;51.00;;;;;;7361777;32;20290;-60
2022/03/02 11:23:22;;;;;;;8.98;5.62;;;10.00;51.80;;;;;;7359382;32;20119;-59
2022/03/02 11:27:36;;;;;;;8.23;5.35;;;9.80;51.20;;;;;;7365776;32;20283;-59
2022/03/02 11:36:46;;;;;;;9.45;5.75;;;9.70;51.90;;;;;;7346465;32;20103;-59
2022/03/02 11:40:50;;;;;;;8.88;5.50;;;9.90;51.80;;;;;;7351288;32;20221;-59
2022/03/02 11:44:51;;;;;;;8.30;5.95;;;10.20;51.90;;;;;;7360114;32;20126;-59
2022/03/02 11:48:53;;;;;;;8.23;5.25;;;10.20;51.20;;;;;;7361339;32;20253;-60
2022/03/02 11:52:56;;;;;;;7.12;5.37;;;10.50;50.40;;;;;;7362195;32;20107;-60
2022/03/02 11:57:01;;;;;;;9.35;5.43;;;11.00;48.60;;;;;;7362688;32;20134;-59
2022/03/02 12:01:11;;;;;;;7.93;5.65;;;11.90;47.30;;;;;;7363961;32;20106;-60
2022/03/02 12:05:30;;;;;;;8.52;5.85;;;12.40;45.30;;;;;;7356517;32;20103;-61
2022/03/02 12:09:37;;;;;;;9.40;5.82;;;13.20;45.00;;;;;;7365276;32;21212;-59
2022/03/02 12:13:39;;;;;;;13.32;7.10;;;14.00;42.50;;;;;;7354428;32;20208;-60
2022/03/02 12:17:41;;;;;;;11.15;6.95;;;14.00;40.30;;;;;;7356482;32;20193;-61
2022/03/02 12:26:49;;;;;;;12.82;7.55;;;14.40;40.50;;;;;;7349842;32;20659;-61
2022/03/02 12:30:51;;;;;;;13.02;7.40;;;14.00;40.10;;;;;;7358612;32;20110;-61
2022/03/02 12:34:54;;;;;;;9.32;6.47;;;14.20;40.00;;;;;;7360839;32;20186;-61
2022/03/02 12:38:56;;;;;;;9.93;6.93;;;14.50;39.20;;;;;;7364568;32;20303;-59
2022/03/02 12:42:59;;;;;;;9.38;7.12;;;14.70;39.30;;;;;;7363536;32;20125;-59
2022/03/02 12:47:05;;;;;;;10.63;7.43;;;14.20;40.00;;;;;;7363012;32;20127;-59
2022/03/02 12:51:08;;;;;;;13.27;7.20;;;14.30;40.40;;;;;;7363215;32;20244;-59
2022/03/02 12:55:12;;;;;;;12.43;7.20;;;13.50;41.10;;;;;;7352780;32;20434;-59
2022/03/02 12:59:14;;;;;;;9.75;7.30;;;13.60;42.20;;;;;;7355970;32;20233;-59
2022/03/02 13:03:38;;;;;;;10.02;6.15;;;13.50;41.70;;;;;;7365328;32;20107;-60
2022/03/02 13:07:52;;;;;;;10.07;6.45;;;13.40;40.50;;;;;;7363711;32;20149;-60
2022/03/02 13:11:54;;;;;;;7.90;5.90;;;13.50;40.70;;;;;;7368515;32;20134;-60
2022/03/02 13:15:56;;;;;;;9.40;6.20;;;13.40;43.70;;;;;;7355561;32;20498;-60
2022/03/02 13:19:58;;;;;;;9.30;5.85;;;13.90;42.80;;;;;;7355688;32;20111;-60
2022/03/02 13:24:05;;;;;;;8.43;5.55;;;14.50;40.00;;;;;;7359567;32;20212;-59
2022/03/02 13:28:10;;;;;;;10.45;6.25;;;14.50;39.60;;;;;;7356934;32;20127;-59
2022/03/02 13:32:12;;;;;;;9.40;6.07;;;15.40;39.10;;;;;;7360069;32;20095;-60
2022/03/02 13:36:43;;;;;;;7.57;5.87;;;15.10;36.70;;;;;;7368512;32;20215;-59
2022/03/02 13:40:47;;;;;;;6.05;5.18;;;14.60;37.40;;;;;;7346869;32;20183;-67
2022/03/02 13:44:49;;;;;;;6.80;5.68;;;14.80;37.60;;;;;;7365118;32;20119;-63
2022/03/02 13:48:52;;;;;;;6.82;5.20;;;15.70;37.80;;;;;;7364717;32;20784;-66
2022/03/02 13:52:59;;;;;;;8.82;5.70;;;15.40;36.50;;;;;;7363740;32;20612;-61
2022/03/02 13:57:03;;;;;;;8.40;6.28;;;15.70;38.50;;;;;;7372757;32;20103;-64
2022/03/02 14:01:24;;;;;;;10.25;6.35;;;15.90;40.00;;;;;;7365656;32;20859;-68
2022/03/02 14:05:27;;;;;;;9.48;6.55;;;15.90;38.90;;;;;;7358278;32;20130;-66
2022/03/02 14:09:29;;;;;;;9.32;6.47;;;16.60;39.20;;;;;;7365755;32;20136;-67
2022/03/02 14:13:32;;;;;;;11.30;6.45;;;16.90;38.20;;;;;;7366209;32;20479;-64
2022/03/02 14:17:35;;;;;;;11.18;6.93;;;16.40;39.30;;;;;;7360724;32;20159;-66
2022/03/02 14:21:58;;;;;;;8.30;6.95;;;15.50;38.90;;;;;;7354115;32;20554;-66
2022/03/02 14:26:00;;;;;;;8.68;6.40;;;15.30;39.00;;;;;;7357437;32;20110;-66
2022/03/02 14:30:08;;;;;;;10.48;6.40;;;15.30;40.50;;;;;;7359654;32;20182;-64
2022/03/02 14:34:10;;;;;;;11.63;6.87;;;15.80;37.80;;;;;;7366009;32;20194;-65
2022/03/02 14:38:13;;;;;;;8.90;6.20;;;15.70;39.20;;;;;;7357789;32;20129;-66
2022/03/02 14:42:16;;;;;;;8.95;6.18;;;15.40;37.80;;;;;;7363182;32;20495;-68
2022/03/02 14:46:17;;;;;;;7.05;6.00;;;14.90;39.60;;;;;;7367535;32;20670;-67
2022/03/02 14:50:40;;;;;;;7.40;5.80;;;14.70;39.70;;;;;;7363532;32;20349;-59
2022/03/02 14:54:41;;;;;;;7.68;5.75;;;13.90;40.80;;;;;;7360647;32;20107;-63
2022/03/02 14:58:46;;;;;;;8.55;5.97;;;13.20;40.40;;;;;;7370386;32;20202;-66
2022/03/02 15:02:48;;;;;;;9.10;5.80;;;12.50;41.50;;;;;;7365471;32;20230;-69
2022/03/02 15:06:52;;;;;;;7.95;5.65;;;12.30;43.10;;;;;;7367972;32;20216;-66
2022/03/02 15:10:54;;;;;;;7.22;5.72;;;12.20;44.20;;;;;;7366080;32;20130;-60
2022/03/02 15:15:14;;;;;;;9.55;6.97;;;12.00;45.20;;;;;;7349485;32;20245;-65
2022/03/02 15:19:19;;;;;;;9.63;5.55;;;11.90;44.20;;;;;;7358920;32;20221;-65
2022/03/02 15:23:21;;;;;;;12.57;5.68;;;11.70;43.80;;;;;;7357713;32;20206;-66
2022/03/02 15:27:26;;;;;;;9.05;5.85;;;11.60;45.30;;;;;;7352263;32;20260;-65
2022/03/02 15:31:28;;;;;;;8.52;5.30;;;11.40;46.10;;;;;;7358579;32;20135;-66
2022/03/02 15:35:30;;;;;;;9.88;5.68;;;11.30;45.50;;;;;;7360618;32;20132;-61
2022/03/02 15:39:37;;;;;;;7.80;5.80;;;11.30;45.70;;;;;;7363671;32;20542;-65
2022/03/02 15:43:43;;;;;;;9.73;6.12;;;11.40;46.80;;;;;;7361065;32;20156;-62
2022/03/02 15:47:52;;;;;;;10.18;6.07;;;11.30;46.90;;;;;;7358064;32;20258;-67
2022/03/02 15:52:05;;;;;;;11.12;7.00;;;11.10;47.00;;;;;;7363187;32;20352;-67
2022/03/02 15:56:10;;;;;;;10.75;6.65;;;10.90;47.90;;;;;;7350529;32;20119;-66
2022/03/02 16:00:14;;;;;;;11.85;6.80;;;10.90;48.00;;;;;;7352287;32;20377;-68
2022/03/02 16:04:20;;;;;;;11.85;6.82;;;10.70;48.40;;;;;;7363937;32;20213;-64
2022/03/02 16:08:32;;;;;;;9.70;6.57;;;10.50;48.30;;;;;;7362010;32;20129;-67
2022/03/02 16:12:45;;;;;;;10.23;6.65;;;10.40;49.00;;;;;;7357382;32;20119;-67
2022/03/02 16:16:50;;;;;;;10.50;6.82;;;10.20;49.40;;;;;;7355763;32;20146;-65
2022/03/02 16:20:52;;;;;;;9.30;6.47;;;10.10;50.80;;;;;;7362964;32;20519;-68
2022/03/02 16:24:54;;;;;;;10.43;7.15;;;9.90;51.50;;;;;;7357400;32;20152;-59
2022/03/02 16:28:56;;;;;;;11.88;6.90;;;9.90;51.20;;;;;;7363766;32;20214;-67
2022/03/02 16:32:59;;;;;;;13.48;6.85;;;9.60;51.90;;;;;;7362463;32;20165;-67
2022/03/02 16:37:04;;;;;;;10.70;6.47;;;9.50;52.40;;;;;;7359087;32;20157;-60
2022/03/02 16:41:06;;;;;;;11.63;6.70;;;9.40;52.60;;;;;;7365097;32;20291;-67
2022/03/02 16:45:11;;;;;;;14.73;7.72;;;9.20;54.00;;;;;;7355311;32;20140;-66
2022/03/02 16:49:13;;;;;;;16.37;6.95;;;9.10;54.40;;;;;;7355962;32;20535;-61
2022/03/02 16:53:16;;;;;;;10.60;6.85;;;9.10;55.30;;;;;;7359324;32;20148;-67
2022/03/02 16:57:21;;;;;;;12.00;7.20;;;8.90;56.40;;;;;;7359223;32;20103;-68
2022/03/02 17:01:23;;;;;;;12.85;6.95;;;8.80;56.60;;;;;;7358989;32;20114;-63
2022/03/02 17:05:26;;;;;;;10.68;7.05;;;8.60;57.30;;;;;;7361664;32;20249;-66
2022/03/02 17:09:27;;;;;;;11.68;6.82;;;8.50;57.60;;;;;;7359499;32;20145;-67
2022/03/02 17:13:31;;;;;;;11.65;6.45;;;8.40;58.10;;;;;;7354894;32;20110;-66
2022/03/02 17:17:33;;;;;;;11.90;7.10;;;8.20;58.80;;;;;;7348277;32;20241;-67
2022/03/02 17:21:36;;;;;;;11.25;6.28;;;8.00;59.40;;;;;;7361267;32;20126;-67
2022/03/02 17:25:38;;;;;;;13.00;7.47;;;7.90;62.20;;;;;;7359340;32;20161;-65
2022/03/02 17:29:39;;;;;;;10.50;7.93;;;7.90;61.80;;;;;;7363209;32;20130;-66
2022/03/02 17:33:41;;;;;;;14.40;8.27;;;7.90;62.50;;;;;;7359649;32;20462;-66
2022/03/02 17:37:43;;;;;;;11.55;7.90;;;7.70;64.60;;;;;;7356217;32;20192;-64
2022/03/02 17:41:45;;;;;;;13.07;8.52;;;7.60;66.20;;;;;;7357057;32;20111;-67
2022/03/02 17:45:47;;;;;;;15.13;8.20;;;7.50;69.50;;;;;;7362538;32;20130;-66
2022/03/02 17:49:49;;;;;;;11.02;6.95;;;7.30;74.20;;;;;;7361337;32;20123;-64
2022/03/02 17:53:51;;;;;;;12.52;7.22;;;7.20;77.10;;;;;;7349225;32;20355;-66
2022/03/02 17:57:53;;;;;;;11.88;6.15;;;7.10;82.70;;;;;;7352837;32;20416;-66
2022/03/02 18:01:55;;;;;;;15.32;7.30;;;6.90;90.60;;;;;;7350452;32;20208;-60
2022/03/02 18:05:57;;;;;;;13.05;7.85;;;6.80;94.10;;;;;;7356131;32;20269;-68
2022/03/02 18:09:59;;;;;;;11.95;7.65;;;6.60;97.80;;;;;;7357277;32;20142;-66
2022/03/02 18:14:05;;;;;;;14.52;8.82;;;6.50;99.20;;;;;;7363975;32;20110;-61
2022/03/02 18:18:09;;;;;;;13.40;8.00;;;6.50;99.10;;;;;;7363066;32;20203;-61
2022/03/02 18:22:18;;;;;;;11.90;7.80;;;6.50;99.90;;;;;;7367798;32;20125;-67
2022/03/02 18:26:26;;;;;;;12.93;7.93;;;6.30;99.90;;;;;;7365779;32;20122;-59
2022/03/02 18:30:28;;;;;;;12.68;7.57;;;6.30;99.90;;;;;;7368137;32;20170;-66
2022/03/02 18:34:30;;;;;;;12.37;7.30;;;6.10;99.90;;;;;;7366906;32;20111;-61
2022/03/02 18:38:35;;;;;;;12.37;8.30;;;6.10;99.90;;;;;;7359002;32;20145;-67
2022/03/02 18:42:36;;;;;;;16.95;9.07;;;5.90;99.90;;;;;;7360359;32;20222;-62
2022/03/02 18:46:40;;;;;;;13.50;7.50;;;5.80;99.90;;;;;;7364603;32;20107;-67
2022/03/02 18:50:42;;;;;;;12.88;7.40;;;5.80;99.90;;;;;;7356263;32;20129;-61
2022/03/02 18:54:44;;;;;;;14.70;8.93;;;5.90;99.90;;;;;;7359569;32;20102;-65
2022/03/02 18:58:57;;;;;;;16.70;9.95;;;5.90;99.90;;;;;;7358600;32;20242;-65
2022/03/02 19:02:58;;;;;;;13.27;8.85;;;5.90;99.90;;;;;;7360199;32;20186;-66
2022/03/02 19:07:01;;;;;;;14.30;8.15;;;5.90;99.90;;;;;;7367796;32;20098;-60
2022/03/02 19:11:03;;;;;;;13.05;8.55;;;5.80;99.90;;;;;;7359371;32;20701;-64
2022/03/02 19:15:06;;;;;;;11.50;7.40;;;5.70;99.90;;;;;;7363762;32;20154;-65
2022/03/02 19:19:09;;;;;;;11.02;7.07;;;5.70;99.90;;;;;;7359553;32;20562;-64
2022/03/02 19:23:14;;;;;;;13.98;7.43;;;5.70;99.90;;;;;;7362539;32;20133;-67
2022/03/02 19:27:19;;;;;;;12.37;7.37;;;5.70;99.90;;;;;;7361732;32;20197;-65
2022/03/02 19:31:21;;;;;;;13.40;7.72;;;5.80;99.90;;;;;;7356526;32;20754;-65
2022/03/02 19:35:23;;;;;;;12.27;8.07;;;5.80;99.90;;;;;;7365367;32;20103;-64
2022/03/02 19:43:45;;;;;;;11.63;7.82;;;5.70;99.90;;;;;;7364800;32;20190;-65
2022/03/02 19:48:01;;;;;;;11.12;7.80;;;5.60;99.90;;;;;;7366980;32;20553;-65
2022/03/02 19:52:03;;;;;;;12.70;7.50;;;5.60;99.90;;;;;;7360062;32;20571;-65
2022/03/02 19:56:08;;;;;;;12.50;8.15;;;5.60;99.90;;;;;;7356955;32;20115;-65
2022/03/02 20:00:10;;;;;;;12.37;7.70;;;5.60;99.90;;;;;;7361929;32;20220;-63
2022/03/02 20:04:13;;;;;;;13.55;7.07;;;5.40;99.90;;;;;;7362321;32;20122;-65
2022/03/02 20:08:15;;;;;;;16.37;7.80;;;5.20;99.90;;;;;;7359840;32;20264;-64
2022/03/02 20:12:16;;;;;;;14.10;7.57;;;4.90;99.90;;;;;;7359486;32;20564;-65
2022/03/02 20:16:18;;;;;;;13.90;8.15;;;4.60;99.90;;;;;;7357466;32;20190;-66
2022/03/02 20:20:20;;;;;;;11.85;7.07;;;4.10;99.90;;;;;;7363787;32;20183;-62
2022/03/02 20:24:22;;;;;;;12.57;7.65;;;4.10;99.90;;;;;;7364424;32;20103;-64
2022/03/02 20:28:24;;;;;;;12.65;7.65;;;3.70;99.90;;;;;;7365227;32;20117;-60
2022/03/02 20:32:26;;;;;;;12.88;7.72;;;3.50;99.90;;;;;;7363063;32;22034;-65
2022/03/02 20:36:28;;;;;;;10.82;7.80;;;3.30;99.90;;;;;;7355768;32;20202;-65
2022/03/02 20:40:30;;;;;;;14.48;8.30;;;3.10;99.90;;;;;;7360002;32;20112;-61
2022/03/02 20:44:34;;;;;;;15.40;8.98;;;2.90;99.90;;;;;;7352370;32;20910;-67
2022/03/02 20:48:36;;;;;;;20.02;9.95;;;2.70;99.90;;;;;;7354141;32;20129;-62
2022/03/02 20:52:39;;;;;;;15.48;8.80;;;2.40;99.90;;;;;;7361405;32;20252;-65
2022/03/02 20:56:41;;;;;;;16.77;9.35;;;2.20;99.90;;;;;;7358473;32;20115;-60
2022/03/02 21:00:44;;;;;;;13.95;8.43;;;2.00;99.90;;;;;;7353508;32;20131;-60
2022/03/02 21:04:46;;;;;;;14.40;8.93;;;1.90;99.90;;;;;;7357629;32;20538;-61
2022/03/02 21:08:48;;;;;;;12.23;8.02;;;1.70;99.90;;;;;;7357988;32;20132;-59
2022/03/02 21:12:54;;;;;;;14.07;9.00;;;1.60;99.90;;;;;;7358622;32;20198;-58
2022/03/02 21:16:56;;;;;;;14.05;8.80;;;1.50;99.90;;;;;;7355507;32;20102;-60
2022/03/02 21:20:58;;;;;;;18.80;9.82;;;1.40;99.90;;;;;;7359684;32;20652;-60